createdAt,value
2022-11-26T00:00:03.374Z,1023.92
2022-11-26T00:05:02.802Z,1024.01
2022-11-26T00:10:02.632Z,1024.06
2022-11-26T00:15:03.653Z,1024.04
2022-11-26T00:20:03.620Z,1024.11
2022-11-26T00:25:03.046Z,1024.15
2022-11-26T00:30:02.652Z,1024.2
2022-11-26T00:35:02.717Z,1024.28
2022-11-26T00:40:02.747Z,1024.29
2022-11-26T00:45:03.665Z,1024.35
2022-11-26T00:50:03.266Z,1024.46
2022-11-26T00:55:03.846Z,1024.35
2022-11-26T01:00:02.450Z,1024.34
2022-11-26T01:05:03.230Z,1024.54
2022-11-26T01:10:03.174Z,1024.62
2022-11-26T01:15:03.080Z,1024.65
2022-11-26T01:20:02.584Z,1024.74
2022-11-26T01:25:03.660Z,1024.82
2022-11-26T01:30:06.529Z,1024.8
2022-11-26T01:35:02.952Z,1024.92
2022-11-26T01:40:03.192Z,1024.91
2022-11-26T01:45:02.873Z,1024.93
2022-11-26T01:50:03.228Z,1024.94
2022-11-26T01:55:04.044Z,1024.96
2022-11-26T02:00:02.955Z,1024.97
2022-11-26T02:05:02.383Z,1025.1
2022-11-26T02:10:03.298Z,1025.15
2022-11-26T02:15:03.035Z,1025.21
2022-11-26T02:20:02.645Z,1025.26
2022-11-26T02:25:03.392Z,1025.31
2022-11-26T02:30:02.930Z,1025.31
2022-11-26T02:35:02.596Z,1025.38
2022-11-26T02:40:02.952Z,1025.47
2022-11-26T02:45:03.190Z,1025.52
2022-11-26T02:50:03.550Z,1025.5
2022-11-26T02:55:03.784Z,1025.52
2022-11-26T03:00:03.613Z,1025.48
2022-11-26T03:05:03.096Z,1025.6
2022-11-26T03:10:02.746Z,1025.75
2022-11-26T03:15:03.239Z,1025.76
2022-11-26T03:20:02.948Z,1025.91
2022-11-26T03:25:02.374Z,1025.88
2022-11-26T03:30:03.547Z,1025.96
2022-11-26T03:35:03.251Z,1026
2022-11-26T03:40:02.688Z,1026.03
2022-11-26T03:45:03.556Z,1026.12
2022-11-26T03:50:02.647Z,1026.25
2022-11-26T03:55:03.695Z,1026.16
2022-11-26T04:00:03.414Z,1026.17
2022-11-26T04:05:03.394Z,1026.14
2022-11-26T04:10:03.061Z,1026.25
2022-11-26T04:15:02.673Z,1026.34
2022-11-26T04:20:03.181Z,1026.35
2022-11-26T04:25:03.112Z,1026.36
2022-11-26T04:30:03.324Z,1026.54
2022-11-26T04:35:03.025Z,1026.62
2022-11-26T04:40:02.975Z,1026.65
2022-11-26T04:45:02.531Z,1026.78
2022-11-26T04:50:03.432Z,1026.8
2022-11-26T04:55:04.098Z,1026.78
2022-11-26T05:00:02.796Z,1026.88
2022-11-26T05:05:03.555Z,1026.98
2022-11-26T05:10:03.154Z,1027.12
2022-11-26T05:15:03.157Z,1027.09
2022-11-26T05:20:02.777Z,1027.28
2022-11-26T05:25:02.915Z,1027.33
2022-11-26T05:30:02.695Z,1027.39
2022-11-26T05:35:03.139Z,1027.42
2022-11-26T05:40:03.037Z,1027.52
2022-11-26T05:45:02.770Z,1027.58
2022-11-26T05:50:03.173Z,1027.52
2022-11-26T05:55:03.897Z,1027.57
2022-11-26T06:00:02.766Z,1027.63
2022-11-26T06:05:03.429Z,1027.77
2022-11-26T06:10:02.784Z,1027.81
2022-11-26T06:15:03.567Z,1027.87
2022-11-26T06:20:02.729Z,1027.91
2022-11-26T06:25:03.163Z,1027.91
2022-11-26T06:30:03.199Z,1028
2022-11-26T06:35:02.938Z,1028.06
2022-11-26T06:40:02.739Z,1028.25
2022-11-26T06:45:03.207Z,1028.28
2022-11-26T06:50:11.331Z,1028.36
2022-11-26T06:55:03.836Z,1028.33
2022-11-26T07:00:02.601Z,1028.41
2022-11-26T07:05:02.853Z,1028.5
2022-11-26T07:10:02.647Z,1028.45
2022-11-26T07:15:03.148Z,1028.58
2022-11-26T07:20:02.940Z,1028.57
2022-11-26T07:25:02.941Z,1028.62
2022-11-26T07:30:02.851Z,1028.77
2022-11-26T07:35:03.016Z,1028.81
2022-11-26T07:40:03.465Z,1028.88
2022-11-26T07:45:03.225Z,1028.92
2022-11-26T07:50:02.705Z,1028.95
2022-11-26T07:55:12.900Z,1028.99
2022-11-26T08:00:02.888Z,1028.93
2022-11-26T08:05:03.035Z,1029
2022-11-26T08:10:02.419Z,1029.14
2022-11-26T08:15:03.405Z,1029.14
2022-11-26T08:20:02.951Z,1029.26
2022-11-26T08:25:03.240Z,1029.31
2022-11-26T08:30:03.685Z,1029.36
2022-11-26T08:35:03.185Z,1029.4
2022-11-26T08:40:02.560Z,1029.45
2022-11-26T08:45:03.583Z,1029.49
2022-11-26T08:50:03.341Z,1029.63
2022-11-26T08:55:04.202Z,1029.63
2022-11-26T09:00:02.802Z,1029.71
2022-11-26T09:05:03.433Z,1029.76
2022-11-26T09:10:02.950Z,1029.75
2022-11-26T09:15:03.408Z,1029.82
2022-11-26T09:20:03.562Z,1029.9
2022-11-26T09:25:02.917Z,1030.04
2022-11-26T09:30:02.579Z,1030.02
2022-11-26T09:35:02.977Z,1030.02
2022-11-26T09:40:02.953Z,1030.06
2022-11-26T09:45:03.538Z,1030.04
2022-11-26T09:50:02.787Z,1030.04
2022-11-26T09:55:04.184Z,1030.01
2022-11-26T10:00:03.292Z,1030.21
2022-11-26T10:05:02.472Z,1030.22
2022-11-26T10:10:03.383Z,1030.12
2022-11-26T10:15:03.716Z,1030.2
2022-11-26T10:20:03.449Z,1030.26
2022-11-26T10:25:02.807Z,1030.24
2022-11-26T10:30:03.672Z,1030.3
2022-11-26T10:35:03.290Z,1030.3
2022-11-26T10:40:08.021Z,1030.36
2022-11-26T10:45:03.723Z,1030.49
2022-11-26T10:55:04.459Z,1030.45
2022-11-26T11:00:03.220Z,1030.44
2022-11-26T11:05:02.817Z,1030.52
2022-11-26T11:10:02.934Z,1030.51
2022-11-26T11:15:03.729Z,1030.47
2022-11-26T11:20:03.114Z,1030.46
2022-11-26T11:25:03.069Z,1030.54
2022-11-26T11:30:02.828Z,1030.57
2022-11-26T11:35:02.835Z,1030.5
2022-11-26T11:40:03.484Z,1030.59
2022-11-26T11:45:02.647Z,1030.6
2022-11-26T11:50:02.993Z,1030.58
2022-11-26T11:55:03.957Z,1030.56
2022-11-26T12:00:02.791Z,1030.51
2022-11-26T12:05:03.223Z,1030.6
2022-11-26T12:10:02.927Z,1030.6
2022-11-26T12:15:03.258Z,1030.63
2022-11-26T12:20:03.672Z,1030.6
2022-11-26T12:25:02.681Z,1030.71
2022-11-26T12:30:03.121Z,1030.66
2022-11-26T12:35:02.428Z,1030.71
2022-11-26T12:40:03.064Z,1030.66
2022-11-26T12:45:07.252Z,1030.77
2022-11-26T12:50:02.834Z,1030.69
2022-11-26T12:55:04.288Z,1030.76
2022-11-26T13:00:03.649Z,1030.75
2022-11-26T13:05:02.906Z,1030.77
2022-11-26T13:10:03.160Z,1030.83
2022-11-26T13:15:02.719Z,1030.88
2022-11-26T13:20:03.113Z,1030.79
2022-11-26T13:25:03.483Z,1030.87
2022-11-26T13:30:02.630Z,1030.83
2022-11-26T13:35:03.322Z,1030.92
2022-11-26T13:40:03.618Z,1030.9
2022-11-26T13:45:02.892Z,1030.99
2022-11-26T13:50:03.265Z,1030.9
2022-11-26T13:55:04.097Z,1030.88
2022-11-26T14:00:03.323Z,1030.87
2022-11-26T14:05:02.670Z,1030.89
2022-11-26T14:10:03.139Z,1030.85
2022-11-26T14:15:03.129Z,1030.92
2022-11-26T14:20:02.572Z,1030.93
2022-11-26T14:25:03.343Z,1031.04
2022-11-26T14:30:03.596Z,1030.95
2022-11-26T14:35:03.094Z,1030.97
2022-11-26T14:40:03.102Z,1031.06
2022-11-26T14:45:02.595Z,1030.98
2022-11-26T14:50:03.152Z,1030.95
2022-11-26T14:55:04.896Z,1031.02
2022-11-26T15:00:02.938Z,1031.01
2022-11-26T15:05:03.013Z,1031.01
2022-11-26T15:10:02.759Z,1031.18
2022-11-26T15:15:03.030Z,1031.16
2022-11-26T15:20:03.254Z,1031.15
2022-11-26T15:25:02.839Z,1030.98
2022-11-26T15:30:03.188Z,1031.07
2022-11-26T15:35:03.329Z,1031.07
2022-11-26T15:40:02.993Z,1030.99
2022-11-26T15:45:03.387Z,1031.03
2022-11-26T15:50:02.434Z,1031.07
2022-11-26T15:55:14.181Z,1031.04
2022-11-26T16:00:03.541Z,1031.05
2022-11-26T16:05:02.726Z,1031.14
2022-11-26T16:10:03.224Z,1031.17
2022-11-26T16:15:03.645Z,1031.16
2022-11-26T16:20:02.721Z,1031.18
2022-11-26T16:25:03.405Z,1031.27
2022-11-26T16:30:02.801Z,1031.31
2022-11-26T16:35:47.224Z,1031.32
2022-11-26T16:40:03.185Z,1031.49
2022-11-26T16:50:03.539Z,1031.37
2022-11-26T16:55:05.127Z,1031.48
2022-11-26T17:00:02.996Z,1031.45
2022-11-26T17:05:03.069Z,1031.47
2022-11-26T17:10:02.777Z,1031.46
2022-11-26T17:15:03.245Z,1031.48
2022-11-26T17:20:03.490Z,1031.43
2022-11-26T17:25:03.163Z,1031.55
2022-11-26T17:30:03.809Z,1031.5
2022-11-26T17:35:02.404Z,1031.59
2022-11-26T17:40:03.462Z,1031.64
2022-11-26T17:45:03.107Z,1031.62
2022-11-26T17:50:02.871Z,1031.65
2022-11-26T17:55:04.227Z,1031.58
2022-11-26T18:00:02.442Z,1031.62
2022-11-26T18:05:02.825Z,1031.62
2022-11-26T18:10:03.480Z,1031.64
2022-11-26T18:15:02.897Z,1031.64
2022-11-26T18:20:03.341Z,1031.67
2022-11-26T18:25:02.635Z,1031.57
2022-11-26T18:30:02.858Z,1031.61
2022-11-26T18:35:03.419Z,1031.55
2022-11-26T18:40:02.578Z,1031.5
2022-11-26T18:45:03.343Z,1031.61
2022-11-26T18:50:03.570Z,1031.65
2022-11-26T18:55:03.958Z,1031.6
2022-11-26T19:00:03.348Z,1031.58
2022-11-26T19:05:02.538Z,1031.6
2022-11-26T19:10:02.980Z,1031.57
2022-11-26T19:15:03.014Z,1031.56
2022-11-26T19:20:03.008Z,1031.48
2022-11-26T19:25:02.420Z,1031.61
2022-11-26T19:30:03.431Z,1031.53
2022-11-26T19:35:06.764Z,1031.45
2022-11-26T19:40:03.492Z,1031.49
2022-11-26T19:45:02.966Z,1031.5
2022-11-26T19:50:02.854Z,1031.52
2022-11-26T19:55:08.760Z,1031.5
2022-11-26T20:00:02.900Z,1031.52
2022-11-26T20:05:02.782Z,1031.57
2022-11-26T20:10:03.224Z,1031.6
2022-11-26T20:15:02.970Z,1031.5
2022-11-26T20:20:03.165Z,1031.65
2022-11-26T20:25:02.847Z,1031.66
2022-11-26T20:30:03.566Z,1031.63
2022-11-26T20:35:03.165Z,1031.68
2022-11-26T20:40:02.745Z,1031.55
2022-11-26T20:45:02.916Z,1031.62
2022-11-26T20:50:02.604Z,1031.61
2022-11-26T20:55:05.031Z,1031.58
2022-11-26T21:00:02.925Z,1031.68
2022-11-26T21:05:03.087Z,1031.57
2022-11-26T21:10:02.815Z,1031.54
2022-11-26T21:15:03.281Z,1031.56
2022-11-26T21:20:03.264Z,1031.57
2022-11-26T21:25:03.213Z,1031.66
2022-11-26T21:30:02.925Z,1031.67
2022-11-26T21:35:02.917Z,1031.7
2022-11-26T21:40:03.367Z,1031.7
2022-11-26T21:45:03.204Z,1031.6
2022-11-26T21:50:03.311Z,1031.58
2022-11-26T21:55:04.635Z,1031.51
2022-11-26T22:00:03.419Z,1031.66
2022-11-26T22:05:03.118Z,1031.61
2022-11-26T22:10:03.362Z,1031.57
2022-11-26T22:15:03.392Z,1031.55
2022-11-26T22:20:03.353Z,1031.64
2022-11-26T22:25:03.055Z,1031.72
2022-11-26T22:30:02.520Z,1031.73
2022-11-26T22:35:02.736Z,1031.81
2022-11-26T22:40:03.458Z,1031.78
2022-11-26T22:45:03.238Z,1031.76
2022-11-26T22:50:02.835Z,1031.77
2022-11-26T22:55:03.847Z,1031.74
2022-11-26T23:00:03.030Z,1031.73
2022-11-26T23:05:02.652Z,1031.71
2022-11-26T23:10:02.397Z,1031.66
2022-11-26T23:15:03.537Z,1031.63
2022-11-26T23:20:03.355Z,1031.67
2022-11-26T23:25:02.613Z,1031.73
2022-11-26T23:30:02.816Z,1031.7
2022-11-26T23:35:02.417Z,1031.69
2022-11-26T23:40:03.411Z,1031.72
2022-11-26T23:45:03.175Z,1031.68
2022-11-26T23:50:02.634Z,1031.73
2022-11-26T23:55:03.873Z,1031.7
